Weather at Mönchengladbach Airport

Public forecast

Using degrees Celsius for public forecast. Weather courtesy of forecast.io.

Current aviation weather report (METAR) for Mönchengladbach Airport

2022/12/06 14:50 (retrieved 13 minutes ago)

EDLN 061450Z 29006KT 9999 FEW018 BKN042 06/03 Q1019

Closest aviation forecast (TAF) to Mönchengladbach Airport

Closest forecast is Düsseldorf Airport, 10.5 nm (19.4 km) ENE.

2022/12/06 12:27 (retrieved 3 hours ago)

TAF EDDL 061100Z 0612/0718 31005KT 9999 SCT010 BKN030 TEMPO 0612/0619 BKN008 BECMG 0613/0616 25006KT BECMG 0619/0621 BKN008 TEMPO 0621/0710 4000 -RADZ BR BKN004 BECMG 0710/0712 SCT010 BKN020